createdAt,value
2023-02-01T00:28:36.254Z,22.05
2023-02-01T00:29:36.201Z,21.99
2023-02-01T00:30:36.197Z,22.08
2023-02-01T00:31:36.200Z,22.10
2023-02-01T00:32:36.070Z,22.02
2023-02-01T00:33:36.019Z,22.01
2023-02-01T00:34:35.974Z,22.01
2023-02-01T00:35:35.934Z,22.07
2023-02-01T00:36:35.885Z,22.05
2023-02-01T00:37:35.842Z,22.08
2023-02-01T00:38:35.812Z,21.98
2023-02-01T00:39:35.753Z,22.01
2023-02-01T00:40:35.706Z,22.05
2023-02-01T00:41:35.676Z,22.02
2023-02-01T00:42:35.604Z,22.04
2023-02-01T00:43:35.567Z,22.01
2023-02-01T00:44:35.515Z,21.99
2023-02-01T00:45:35.474Z,22.00
2023-02-01T00:46:35.476Z,21.99
2023-02-01T00:47:35.398Z,22.01
2023-02-01T00:48:35.356Z,22.00
2023-02-01T00:49:35.281Z,22.02
2023-02-01T00:50:35.229Z,22.03
2023-02-01T00:51:35.192Z,22.04
2023-02-01T00:52:35.144Z,22.05
2023-02-01T00:53:35.100Z,22.00
2023-02-01T00:54:35.061Z,22.00
2023-02-01T00:55:35.019Z,22.02
2023-02-01T00:56:34.968Z,22.03
2023-02-01T00:57:34.933Z,22.08
2023-02-01T00:58:34.907Z,22.03
2023-02-01T00:59:34.838Z,22.05
2023-02-01T01:00:34.825Z,22.02
2023-02-01T01:01:34.766Z,22.00
2023-02-01T01:02:34.720Z,22.05
2023-02-01T01:03:34.686Z,22.06
2023-02-01T01:04:34.634Z,22.06
2023-02-01T01:05:34.592Z,22.03
2023-02-01T01:06:34.551Z,22.07
2023-02-01T01:07:34.506Z,22.02
2023-02-01T01:08:34.473Z,22.04
2023-02-01T01:09:34.413Z,22.05
2023-02-01T01:10:34.376Z,22.02
2023-02-01T01:11:34.326Z,22.04
2023-02-01T01:12:34.285Z,21.99
2023-02-01T01:13:34.230Z,22.07
2023-02-01T01:14:34.199Z,22.08
2023-02-01T01:15:34.147Z,22.05
2023-02-01T01:16:34.091Z,22.05
2023-02-01T01:17:34.045Z,22.10
2023-02-01T01:18:33.998Z,22.05
2023-02-01T01:19:33.963Z,22.05
2023-02-01T01:20:33.916Z,22.07
2023-02-01T01:21:33.873Z,22.06
2023-02-01T01:22:33.822Z,22.06
2023-02-01T01:23:33.776Z,22.05
2023-02-01T02:08:31.907Z,22.09
2023-02-01T02:09:31.872Z,22.05
2023-02-01T02:10:31.816Z,22.09
2023-02-01T02:11:31.782Z,22.11
2023-02-01T02:12:31.769Z,22.11
2023-02-01T02:13:31.710Z,22.09
2023-02-01T02:14:31.671Z,22.09
2023-02-01T02:15:31.643Z,22.12
2023-02-01T02:16:31.665Z,22.11
2023-02-01T02:17:31.565Z,22.14
2023-02-01T02:18:31.503Z,22.11
2023-02-01T02:19:31.477Z,22.03
2023-02-01T02:20:31.454Z,22.05
2023-02-01T02:21:31.421Z,22.12
2023-02-01T02:22:31.363Z,22.08
2023-02-01T02:23:31.332Z,22.09
2023-02-01T02:24:31.301Z,22.08
2023-02-01T02:25:31.252Z,22.09
2023-02-01T02:26:31.241Z,22.14
2023-02-01T02:27:31.177Z,22.11
2023-02-01T02:28:31.151Z,22.08
2023-02-01T02:29:31.092Z,22.12
2023-02-01T02:30:31.110Z,22.12
2023-02-01T02:31:31.094Z,22.14
2023-02-01T02:32:30.986Z,22.11
2023-02-01T02:33:30.954Z,22.18
2023-02-01T02:34:30.909Z,22.08
2023-02-01T02:35:30.861Z,22.06
2023-02-01T02:36:30.892Z,22.14
2023-02-01T02:37:30.802Z,22.08
2023-02-01T02:38:30.751Z,22.14
2023-02-01T02:39:30.690Z,22.11
2023-02-01T02:40:30.661Z,22.11
2023-02-01T02:41:30.627Z,22.09
2023-02-01T02:42:30.630Z,22.12
2023-02-01T02:43:30.531Z,22.10
2023-02-01T02:44:30.488Z,22.11
2023-02-01T02:45:30.512Z,22.11
2023-02-01T02:46:30.403Z,22.08
2023-02-01T02:47:30.366Z,22.11
2023-02-01T02:48:30.323Z,22.08
2023-02-01T02:49:30.308Z,22.07
2023-02-01T02:50:30.231Z,22.10
2023-02-01T02:51:30.221Z,22.12
2023-02-01T02:52:30.150Z,22.09
2023-02-01T02:53:30.129Z,22.11
2023-02-01T02:54:30.060Z,22.11
2023-02-01T02:55:30.041Z,22.11
2023-02-01T02:56:29.973Z,22.07
2023-02-01T02:57:29.934Z,22.08
2023-02-01T02:58:29.918Z,22.11
2023-02-01T02:59:29.867Z,22.14
2023-02-01T03:00:29.835Z,22.10
2023-02-01T03:01:29.812Z,22.11
2023-02-01T03:02:29.827Z,22.07
2023-02-01T03:03:29.704Z,22.11
2023-02-01T03:04:29.690Z,22.14
2023-02-01T03:05:29.597Z,22.11
2023-02-01T03:06:29.545Z,22.06
2023-02-01T03:07:29.504Z,22.08
2023-02-01T03:08:29.473Z,22.16
2023-02-01T03:09:29.417Z,22.06
2023-02-01T03:10:29.369Z,22.12
2023-02-01T03:11:29.329Z,22.17
2023-02-01T03:12:29.302Z,22.13
2023-02-01T03:13:29.237Z,22.12
2023-02-01T03:14:29.185Z,22.10
2023-02-01T03:15:29.144Z,22.13
2023-02-01T03:16:29.208Z,22.09
2023-02-01T03:17:29.056Z,22.12
2023-02-01T03:18:29.009Z,22.09
2023-02-01T03:19:28.973Z,22.05
2023-02-01T03:20:28.921Z,22.10
2023-02-01T03:21:28.879Z,22.13
2023-02-01T03:22:28.839Z,22.09
2023-02-01T03:23:28.803Z,22.10
2023-02-01T03:24:28.749Z,22.11
2023-02-01T03:25:28.740Z,22.07
2023-02-01T03:26:28.704Z,22.11
2023-02-01T03:27:28.630Z,22.10
2023-02-01T03:28:28.580Z,22.14
2023-02-01T03:29:28.564Z,22.08
2023-02-01T03:30:28.494Z,22.18
2023-02-01T03:31:28.512Z,22.14
2023-02-01T03:32:28.433Z,22.14
2023-02-01T03:33:28.380Z,22.10
2023-02-01T03:34:28.368Z,22.10
2023-02-01T03:35:28.321Z,22.08
2023-02-01T03:36:28.261Z,22.18
2023-02-01T03:37:28.235Z,22.12
2023-02-01T03:38:28.184Z,22.12
2023-02-01T03:39:28.131Z,22.14
2023-02-01T03:40:28.097Z,22.14
2023-02-01T03:41:28.051Z,22.11
2023-02-01T03:42:28.008Z,21.90
2023-02-01T03:43:27.962Z,21.78
2023-02-01T03:44:27.956Z,21.81
2023-02-01T03:45:27.894Z,21.80
2023-02-01T03:46:27.833Z,21.93
2023-02-01T03:47:27.788Z,21.98
2023-02-01T03:48:27.772Z,21.68
2023-02-01T03:49:27.708Z,21.58
2023-02-01T03:50:27.678Z,21.58
2023-02-01T03:51:27.630Z,21.55
2023-02-01T03:52:27.599Z,21.77
2023-02-01T03:53:27.545Z,21.75
2023-02-01T03:54:27.503Z,21.51
2023-02-01T03:55:27.474Z,21.50
2023-02-01T03:56:27.419Z,21.56
2023-02-01T03:57:27.393Z,21.65
2023-02-01T03:58:27.338Z,21.71
2023-02-01T03:59:27.295Z,21.60
2023-02-01T04:00:27.240Z,21.38
2023-02-01T04:01:27.233Z,21.40
2023-02-01T04:02:27.185Z,21.44
2023-02-01T04:03:27.136Z,21.54
2023-02-01T04:04:27.060Z,21.54
2023-02-01T04:05:27.028Z,21.50
2023-02-01T04:06:26.986Z,21.25
2023-02-01T04:07:26.932Z,21.28
2023-02-01T04:08:26.888Z,21.31
2023-02-01T04:09:26.851Z,21.34
2023-02-01T04:10:26.815Z,21.47
2023-02-01T04:11:26.749Z,21.31
2023-02-01T04:12:26.779Z,21.16
2023-02-01T04:13:26.654Z,21.19
2023-02-01T04:14:26.614Z,21.34
2023-02-01T04:15:26.560Z,21.42
2023-02-01T04:16:26.524Z,21.47
2023-02-01T04:17:26.451Z,21.19
2023-02-01T04:18:26.397Z,21.14
2023-02-01T04:19:26.375Z,21.13
2023-02-01T04:20:26.354Z,21.23
2023-02-01T04:21:26.245Z,21.35
2023-02-01T04:22:26.192Z,21.36
2023-02-01T04:23:26.135Z,21.11
2023-02-01T04:24:26.102Z,21.14
2023-02-01T04:25:26.039Z,21.08
2023-02-01T04:26:26.006Z,21.27
2023-02-01T04:27:25.937Z,21.29
2023-02-01T04:28:25.893Z,21.21
2023-02-01T04:29:25.847Z,20.99
2023-02-01T04:30:26.062Z,20.99
2023-02-01T04:31:25.936Z,20.99
2023-02-01T04:32:25.703Z,21.07
2023-02-01T04:33:25.643Z,21.13
2023-02-01T04:34:25.608Z,21.24
2023-02-01T04:35:25.544Z,20.94
2023-02-01T04:36:25.512Z,20.96
2023-02-01T04:37:25.462Z,21.01
2023-02-01T04:38:25.429Z,21.05
2023-02-01T04:39:25.375Z,21.14
2023-02-01T04:40:25.674Z,21.17
2023-02-01T04:41:25.304Z,20.84
2023-02-01T04:42:25.273Z,20.95
2023-02-01T04:43:25.218Z,21.01
2023-02-01T04:44:25.169Z,21.04
2023-02-01T04:45:25.127Z,21.13
2023-02-01T04:46:25.260Z,20.93
2023-02-01T04:47:25.030Z,20.87
2023-02-01T04:48:25.245Z,20.89
2023-02-01T04:49:24.935Z,20.90
2023-02-01T04:50:25.274Z,21.02
2023-02-01T04:51:24.859Z,21.05
2023-02-01T04:52:24.794Z,20.92
2023-02-01T04:53:24.754Z,20.87
2023-02-01T04:54:24.723Z,20.84
2023-02-01T04:55:24.689Z,21.00
2023-02-01T04:56:24.626Z,21.00
2023-02-01T04:57:24.592Z,21.07
2023-02-01T04:58:24.537Z,20.78
2023-02-01T04:59:24.494Z,20.78
2023-02-01T05:00:24.752Z,20.86
2023-02-01T05:01:24.450Z,20.93
2023-02-01T05:02:24.353Z,20.99
2023-02-01T05:03:24.328Z,20.97
2023-02-01T05:04:24.318Z,20.84
2023-02-01T05:05:24.274Z,20.84
2023-02-01T05:06:24.172Z,20.90
2023-02-01T05:07:24.130Z,20.96
2023-02-01T05:08:24.114Z,20.99
2023-02-01T05:09:24.045Z,20.89
2023-02-01T05:10:24.421Z,20.77
2023-02-01T05:11:23.949Z,20.76
2023-02-01T05:12:23.987Z,20.87
2023-02-01T05:13:23.865Z,20.90
2023-02-01T05:14:23.832Z,20.94
2023-02-01T05:15:23.795Z,20.72
2023-02-01T05:16:23.729Z,20.83
2023-02-01T05:17:23.681Z,20.71
2023-02-01T05:18:23.636Z,20.87
2023-02-01T05:19:23.587Z,20.90
2023-02-01T05:20:23.827Z,20.96
2023-02-01T05:21:23.502Z,20.69
2023-02-01T05:22:23.468Z,20.66
2023-02-01T05:23:23.411Z,20.83
2023-02-01T05:24:23.374Z,20.83
2023-02-01T05:25:23.362Z,20.92
2023-02-01T05:26:23.321Z,20.88
2023-02-01T05:27:23.255Z,20.63
2023-02-01T05:28:23.253Z,20.68
2023-02-01T05:29:23.194Z,20.72
2023-02-01T05:30:23.494Z,20.80
2023-02-01T05:31:23.244Z,20.84
2023-02-01T05:32:23.417Z,20.69
2023-02-01T05:33:23.007Z,20.60
2023-02-01T05:34:22.968Z,20.65
2023-02-01T05:35:22.947Z,20.72
2023-02-01T05:36:22.876Z,20.76
2023-02-01T05:37:22.835Z,20.78
2023-02-01T05:38:22.794Z,20.63
2023-02-01T05:39:22.748Z,20.53
2023-02-01T05:40:23.011Z,20.63
2023-02-01T05:41:22.663Z,20.66
2023-02-01T05:42:22.620Z,20.77
2023-02-01T05:43:22.575Z,20.84
2023-02-01T05:44:22.532Z,20.53
2023-02-01T05:45:22.486Z,20.47
2023-02-01T05:46:22.515Z,20.58
2023-02-01T05:47:22.407Z,20.75
2023-02-01T05:48:22.373Z,20.65
2023-02-01T05:49:22.362Z,20.77
2023-02-01T05:50:22.671Z,20.50
2023-02-01T05:51:22.257Z,20.43
2023-02-01T05:52:22.225Z,20.52
2023-02-01T05:53:22.187Z,20.71
2023-02-01T05:54:22.141Z,20.72
2023-02-01T05:55:22.093Z,20.70
2023-02-01T05:56:22.080Z,20.52
2023-02-01T05:57:22.026Z,20.45
2023-02-01T05:58:21.981Z,20.53
2023-02-01T05:59:21.948Z,20.59
2023-02-01T06:00:22.480Z,20.66
2023-02-01T06:01:21.862Z,20.65
2023-02-01T06:02:21.864Z,20.41
2023-02-01T06:03:21.783Z,20.47
2023-02-01T06:04:21.751Z,20.51
2023-02-01T06:05:21.701Z,20.56
2023-02-01T06:06:21.687Z,20.66
2023-02-01T06:07:21.632Z,20.57
2023-02-01T06:08:21.589Z,20.42
2023-02-01T06:09:21.536Z,20.38
2023-02-01T06:10:21.840Z,20.57
2023-02-01T06:11:31.856Z,20.60
2023-02-01T06:12:22.431Z,20.59
2023-02-01T06:13:21.411Z,20.56
2023-02-01T06:14:21.360Z,20.41
2023-02-01T06:15:21.306Z,20.41
2023-02-01T06:16:21.316Z,20.59
2023-02-01T06:17:21.227Z,20.63
2023-02-01T06:18:21.193Z,20.66
2023-02-01T06:19:21.159Z,20.47
2023-02-01T06:20:21.397Z,20.42
2023-02-01T06:21:21.081Z,20.44
2023-02-01T06:22:21.033Z,20.50
2023-02-01T06:23:21.000Z,20.51
2023-02-01T06:24:20.944Z,20.63
2023-02-01T06:25:20.895Z,20.45
2023-02-01T06:26:20.910Z,20.45
2023-02-01T06:27:20.809Z,20.38
2023-02-01T06:28:20.778Z,20.45
2023-02-01T06:29:20.748Z,20.60
2023-02-01T06:30:21.147Z,20.56
2023-02-01T06:31:20.749Z,20.31
2023-02-01T06:32:20.635Z,20.38
2023-02-01T06:33:20.582Z,20.43
2023-02-01T06:34:22.176Z,20.51
2023-02-01T06:35:20.502Z,20.47
2023-02-01T06:36:20.471Z,20.45
2023-02-01T06:37:20.447Z,20.39
2023-02-01T06:38:20.406Z,20.37
2023-02-01T06:39:20.361Z,20.38
2023-02-01T06:40:20.345Z,20.45
2023-02-01T06:41:20.347Z,20.53
2023-02-01T06:42:20.283Z,20.44
2023-02-01T06:43:20.229Z,20.32
2023-02-01T06:44:20.166Z,20.47
2023-02-01T06:45:20.126Z,20.45
2023-02-01T06:46:20.144Z,20.51
2023-02-01T06:47:20.049Z,20.51
2023-02-01T06:48:20.027Z,20.31
2023-02-01T06:49:19.968Z,20.31
2023-02-01T06:50:19.931Z,20.38
2023-02-01T06:51:19.892Z,20.44
2023-02-01T06:52:19.858Z,20.43
2023-02-01T06:53:19.820Z,20.48
2023-02-01T06:54:19.788Z,20.26
2023-02-01T06:55:19.733Z,20.39
2023-02-01T06:56:20.282Z,20.35
2023-02-01T06:57:19.664Z,20.44
2023-02-01T06:58:19.637Z,20.48
2023-02-01T06:59:19.681Z,20.41
2023-02-01T07:00:19.543Z,20.25
2023-02-01T07:01:19.547Z,20.28
2023-02-01T07:02:19.559Z,20.38
2023-02-01T07:03:19.439Z,20.39
2023-02-01T07:04:19.410Z,20.44
2023-02-01T07:05:19.379Z,20.41
2023-02-01T07:06:19.393Z,20.31
2023-02-01T07:07:19.297Z,20.29
2023-02-01T07:08:19.269Z,20.43
2023-02-01T07:09:19.213Z,20.41
2023-02-01T07:10:19.179Z,20.43
2023-02-01T07:11:19.136Z,20.35
2023-02-01T07:12:19.111Z,20.26
2023-02-01T07:13:19.077Z,20.32
2023-02-01T07:14:19.035Z,20.43
2023-02-01T07:15:19.011Z,20.50
2023-02-01T07:16:18.979Z,20.53
2023-02-01T07:17:18.919Z,20.36
2023-02-01T07:18:18.881Z,20.29
2023-02-01T07:19:18.876Z,20.37
2023-02-01T07:20:18.834Z,20.41
2023-02-01T07:21:18.786Z,20.50
2023-02-01T07:22:18.779Z,20.41
2023-02-01T07:23:18.685Z,20.28
2023-02-01T07:24:18.655Z,20.29
2023-02-01T07:25:18.611Z,20.39
2023-02-01T07:26:18.673Z,20.48
2023-02-01T07:27:18.557Z,20.53
2023-02-01T07:28:18.537Z,20.37
2023-02-01T07:29:18.452Z,20.29
2023-02-01T07:30:18.417Z,20.29
2023-02-01T07:31:18.381Z,20.35
2023-02-01T07:32:18.396Z,20.45
2023-02-01T07:33:18.317Z,20.49
2023-02-01T07:34:18.284Z,20.31
2023-02-01T07:35:18.282Z,20.28
2023-02-01T07:36:18.235Z,20.26
2023-02-01T07:37:18.161Z,20.39
2023-02-01T07:38:18.117Z,20.44
2023-02-01T07:39:18.064Z,20.47
2023-02-01T07:40:18.032Z,20.28
2023-02-01T07:41:18.016Z,20.35
2023-02-01T07:42:18.003Z,20.28
2023-02-01T07:43:17.966Z,20.37
2023-02-01T07:44:17.903Z,20.41
2023-02-01T07:45:21.332Z,20.53
2023-02-01T07:46:17.895Z,20.31
2023-02-01T07:47:17.789Z,20.32
2023-02-01T07:48:17.759Z,20.32
2023-02-01T07:49:17.726Z,20.44
2023-02-01T07:50:17.772Z,20.48
2023-02-01T07:51:17.675Z,20.48
2023-02-01T07:52:17.649Z,20.22
2023-02-01T07:53:17.606Z,20.29
2023-02-01T07:54:17.574Z,20.29
2023-02-01T07:55:17.527Z,20.40
2023-02-01T07:56:17.472Z,20.50
2023-02-01T07:57:17.441Z,20.47
2023-02-01T07:58:17.413Z,20.25
2023-02-01T07:59:17.366Z,20.23
2023-02-01T08:00:17.338Z,20.31
2023-02-01T08:01:17.350Z,20.38
2023-02-01T08:02:17.357Z,20.42
2023-02-01T08:03:17.503Z,20.27
2023-02-01T08:04:17.179Z,20.16
2023-02-01T08:05:17.148Z,20.21
2023-02-01T08:06:17.116Z,20.22
2023-02-01T08:07:17.070Z,20.27
2023-02-01T08:08:17.055Z,20.33
2023-02-01T08:09:17.015Z,20.18
2023-02-01T08:10:16.982Z,20.15
2023-02-01T08:11:16.950Z,20.14
2023-02-01T08:12:16.925Z,20.20
2023-02-01T08:13:16.892Z,20.27
2023-02-01T08:14:16.853Z,20.30
2023-02-01T08:15:16.885Z,20.00
2023-02-01T08:16:16.792Z,20.09
2023-02-01T08:17:17.320Z,20.12
2023-02-01T08:18:16.721Z,20.24
2023-02-01T08:19:16.673Z,20.27
2023-02-01T08:20:16.628Z,20.24
2023-02-01T08:21:16.599Z,20.03
2023-02-01T08:22:16.563Z,20.08
2023-02-01T08:23:16.518Z,20.16
2023-02-01T08:24:16.496Z,20.17
2023-02-01T08:25:16.488Z,20.23
2023-02-01T08:26:16.497Z,20.24
2023-02-01T08:27:16.377Z,19.99
2023-02-01T08:28:16.365Z,20.01
2023-02-01T08:29:16.311Z,20.08
2023-02-01T08:30:16.264Z,20.11
2023-02-01T08:31:16.257Z,20.13
2023-02-01T08:32:16.203Z,20.17
2023-02-01T08:33:16.180Z,19.99
2023-02-01T08:34:16.133Z,20.01
2023-02-01T08:35:16.098Z,20.05
2023-02-01T08:36:16.060Z,20.14
2023-02-01T08:37:16.018Z,20.20
2023-02-01T08:38:15.986Z,20.01
2023-02-01T08:39:15.953Z,19.88
2023-02-01T08:40:15.907Z,19.96
2023-02-01T08:41:15.892Z,20.00
2023-02-01T08:42:15.831Z,20.00
2023-02-01T08:43:15.824Z,20.09
2023-02-01T08:44:15.751Z,19.91
2023-02-01T08:45:15.718Z,19.83
2023-02-01T08:46:15.731Z,19.81
2023-02-01T08:47:15.652Z,19.94
2023-02-01T08:48:15.610Z,19.90
2023-02-01T08:49:15.560Z,19.92
2023-02-01T08:50:15.522Z,19.83
2023-02-01T08:51:15.495Z,19.73
2023-02-01T08:52:16.421Z,19.78
2023-02-01T08:53:15.406Z,19.87
2023-02-01T08:54:15.366Z,19.89
2023-02-01T08:55:15.331Z,19.95
2023-02-01T08:56:15.298Z,19.79
2023-02-01T08:57:15.272Z,19.71
2023-02-01T08:58:15.209Z,19.71
2023-02-01T08:59:15.193Z,19.83
2023-02-01T09:00:15.133Z,19.91
2023-02-01T09:01:15.150Z,19.67
2023-02-01T09:02:15.042Z,19.67
2023-02-01T09:03:14.994Z,19.69
2023-02-01T09:04:14.999Z,19.76
2023-02-01T09:05:14.916Z,19.85
2023-02-01T09:06:14.875Z,19.84
2023-02-01T09:07:14.841Z,19.69
2023-02-01T09:08:14.765Z,19.64
2023-02-01T09:09:14.739Z,19.67
2023-02-01T09:10:17.226Z,19.70
2023-02-01T09:11:14.694Z,19.84
2023-02-01T09:12:14.600Z,19.64
2023-02-01T09:13:14.569Z,19.62
2023-02-01T09:14:14.527Z,19.64
2023-02-01T09:15:14.499Z,19.66
2023-02-01T09:16:14.496Z,19.74
2023-02-01T09:17:14.423Z,19.75
2023-02-01T09:18:14.343Z,19.66
2023-02-01T09:19:26.096Z,19.60
2023-02-01T09:20:15.271Z,19.56
2023-02-01T09:21:14.217Z,19.54
2023-02-01T09:22:14.180Z,19.53
2023-02-01T09:23:14.141Z,19.66
2023-02-01T09:24:14.107Z,19.67
2023-02-01T09:25:14.072Z,19.66
2023-02-01T09:26:17.184Z,19.58
2023-02-01T09:27:15.046Z,19.56
2023-02-01T09:28:13.924Z,19.47
2023-02-01T09:29:13.881Z,19.54
2023-02-01T09:30:13.865Z,19.50
2023-02-01T09:31:13.962Z,19.54
2023-02-01T09:32:13.856Z,19.62
2023-02-01T09:33:13.715Z,19.62
2023-02-01T09:34:13.660Z,19.64
2023-02-01T09:35:13.620Z,19.62
2023-02-01T09:36:13.581Z,19.66
2023-02-01T09:37:13.553Z,19.66
2023-02-01T09:38:13.480Z,19.60
2023-02-01T09:39:13.457Z,19.67
2023-02-01T09:40:13.401Z,19.67
2023-02-01T09:41:13.351Z,19.63
2023-02-01T09:42:13.304Z,19.69
2023-02-01T09:43:13.275Z,19.70
2023-02-01T09:44:13.218Z,19.63
2023-02-01T09:45:13.190Z,19.58
2023-02-01T09:46:13.131Z,19.49
2023-02-01T09:47:13.102Z,19.52
2023-02-01T09:48:13.023Z,19.58
2023-02-01T09:49:12.989Z,19.61
2023-02-01T09:50:12.960Z,19.62
2023-02-01T09:51:12.899Z,19.58
2023-02-01T09:52:12.856Z,19.52
2023-02-01T09:53:12.823Z,19.53
2023-02-01T09:54:12.778Z,19.51
2023-02-01T09:55:12.762Z,19.55
2023-02-01T09:56:12.700Z,19.58
2023-02-01T09:57:12.658Z,19.61
2023-02-01T09:58:12.625Z,19.62
2023-02-01T09:59:12.568Z,19.52
2023-02-01T10:00:12.549Z,19.39
2023-02-01T10:01:12.524Z,19.42
2023-02-01T10:02:12.447Z,19.44
2023-02-01T10:03:12.431Z,19.53
2023-02-01T10:04:12.380Z,19.58
2023-02-01T10:05:12.337Z,19.44
2023-02-01T10:06:12.296Z,19.42
2023-02-01T10:07:12.289Z,19.43
2023-02-01T10:08:12.230Z,19.51
2023-02-01T10:09:12.192Z,19.56
2023-02-01T10:10:12.171Z,19.49
2023-02-01T10:11:12.107Z,19.43
2023-02-01T10:12:12.078Z,19.40
2023-02-01T10:13:12.044Z,19.46
2023-02-01T10:14:12.001Z,19.56
2023-02-01T10:15:11.968Z,19.55
2023-02-01T10:16:12.149Z,19.40
2023-02-01T10:17:11.881Z,19.43
2023-02-01T10:18:11.857Z,19.43
2023-02-01T10:19:11.814Z,19.55
2023-02-01T10:20:11.768Z,19.59
2023-02-01T10:21:11.730Z,19.37
2023-02-01T10:22:11.680Z,19.39
2023-02-01T10:23:27.222Z,19.39
2023-02-01T10:24:18.064Z,19.53
2023-02-01T10:25:12.743Z,19.55
2023-02-01T10:26:11.684Z,19.43
2023-02-01T10:27:11.716Z,19.39
2023-02-01T10:28:11.595Z,19.43
2023-02-01T10:29:11.553Z,19.49
2023-02-01T10:30:11.487Z,19.58
2023-02-01T10:31:11.527Z,19.44
2023-02-01T10:32:11.382Z,19.37
2023-02-01T10:33:11.349Z,19.43
2023-02-01T10:34:11.294Z,19.44
2023-02-01T10:35:11.248Z,19.56
2023-02-01T10:36:11.205Z,19.44
2023-02-01T10:37:11.198Z,19.36
2023-02-01T10:38:11.125Z,19.37
2023-02-01T10:39:11.050Z,19.47
2023-02-01T10:40:11.017Z,19.52
2023-02-01T10:41:10.950Z,19.53
2023-02-01T10:42:11.652Z,19.36
2023-02-01T10:43:10.861Z,19.42
2023-02-01T10:44:10.826Z,19.39
2023-02-01T10:45:10.773Z,19.50
2023-02-01T10:46:10.825Z,19.53
2023-02-01T10:47:10.678Z,19.43
2023-02-01T10:48:10.610Z,19.36
2023-02-01T10:49:10.557Z,19.43
2023-02-01T10:50:10.548Z,19.50
2023-02-01T10:51:10.487Z,19.53
2023-02-01T10:52:10.419Z,19.43
2023-02-01T10:53:10.390Z,19.36
2023-02-01T10:54:10.331Z,19.39
2023-02-01T10:55:10.304Z,19.43
2023-02-01T10:56:10.254Z,19.62
2023-02-01T10:57:10.210Z,19.50
2023-02-01T10:58:10.164Z,19.39
2023-02-01T10:59:10.095Z,19.39
2023-02-01T11:00:10.097Z,19.40
2023-02-01T11:01:10.009Z,19.53
2023-02-01T11:02:09.944Z,19.53
2023-02-01T11:03:09.910Z,19.34
2023-02-01T11:04:09.827Z,19.37
2023-02-01T11:05:09.778Z,19.39
2023-02-01T11:06:09.728Z,19.44
2023-02-01T11:07:09.668Z,19.55
2023-02-01T11:08:09.611Z,19.40
2023-02-01T11:09:09.568Z,19.40
2023-02-01T11:10:09.506Z,19.40
2023-02-01T11:11:09.464Z,19.44
2023-02-01T11:12:09.403Z,19.53
2023-02-01T11:13:09.350Z,19.43
2023-02-01T11:14:09.306Z,19.37
2023-02-01T11:15:09.267Z,19.40
2023-02-01T11:16:09.303Z,19.43
2023-02-01T11:17:09.189Z,19.47
2023-02-01T11:18:09.143Z,19.58
2023-02-01T11:19:09.102Z,19.53
2023-02-01T11:20:09.052Z,19.55
2023-02-01T11:21:09.048Z,19.56
2023-02-01T11:22:08.976Z,19.56
2023-02-01T11:23:08.939Z,19.56
2023-02-01T11:24:08.908Z,19.63
2023-02-01T11:25:08.846Z,19.63
2023-02-01T11:26:08.808Z,19.68
2023-02-01T11:27:10.349Z,19.66
2023-02-01T11:28:08.742Z,19.66
2023-02-01T11:29:08.711Z,19.68
2023-02-01T11:30:08.698Z,19.63
2023-02-01T11:31:08.761Z,19.66
2023-02-01T11:32:08.576Z,19.68
2023-02-01T11:33:08.528Z,19.68
2023-02-01T11:34:08.496Z,19.71
2023-02-01T11:35:08.486Z,19.73
2023-02-01T11:36:08.420Z,19.77
2023-02-01T11:37:08.380Z,19.74
2023-02-01T11:38:08.312Z,19.76
2023-02-01T11:39:08.262Z,19.71
2023-02-01T11:40:08.240Z,19.79
2023-02-01T11:41:08.198Z,19.80
2023-02-01T11:42:08.148Z,19.89
2023-02-01T11:43:08.098Z,19.83
2023-02-01T11:44:08.055Z,19.82
2023-02-01T11:45:08.020Z,19.83
2023-02-01T11:46:07.984Z,19.87
2023-02-01T11:47:07.931Z,19.85
2023-02-01T11:48:09.986Z,19.85
2023-02-01T11:49:07.872Z,19.84
2023-02-01T11:50:07.797Z,19.87
2023-02-01T11:51:07.781Z,19.80
2023-02-01T11:52:07.740Z,19.85
2023-02-01T11:53:07.741Z,19.88
2023-02-01T11:54:07.625Z,19.88
2023-02-01T11:55:07.572Z,19.94
2023-02-01T11:56:07.537Z,19.89
2023-02-01T11:57:07.497Z,19.89
2023-02-01T11:58:07.467Z,19.92
2023-02-01T11:59:07.424Z,19.91
2023-02-01T12:00:07.369Z,19.95
2023-02-01T12:01:07.347Z,19.94
2023-02-01T12:02:07.355Z,19.94
2023-02-01T12:03:07.289Z,19.97
2023-02-01T12:04:07.196Z,19.94
2023-02-01T12:05:07.173Z,20.03
2023-02-01T12:06:07.134Z,19.97
2023-02-01T12:07:07.092Z,20.02
2023-02-01T12:08:07.040Z,20.04
2023-02-01T12:09:06.990Z,20.04
2023-02-01T12:10:06.967Z,20.09
2023-02-01T12:11:06.905Z,20.08
2023-02-01T12:12:06.856Z,20.10
2023-02-01T12:13:06.808Z,20.07
2023-02-01T12:14:06.773Z,20.00
2023-02-01T12:15:06.741Z,20.05
2023-02-01T12:16:06.767Z,19.97
2023-02-01T12:17:06.654Z,19.94
2023-02-01T12:18:06.612Z,20.01
2023-02-01T12:19:06.560Z,19.98
2023-02-01T12:20:06.515Z,19.97
2023-02-01T12:21:06.483Z,20.05
2023-02-01T12:22:06.442Z,19.97
2023-02-01T12:23:06.396Z,19.82
2023-02-01T12:24:06.355Z,19.82
2023-02-01T12:25:06.310Z,19.83
2023-02-01T12:26:06.276Z,19.79
2023-02-01T12:27:06.228Z,19.73
2023-02-01T12:28:06.180Z,19.79
2023-02-01T12:29:06.161Z,19.82
2023-02-01T12:30:06.117Z,19.68
2023-02-01T12:31:06.149Z,19.74
2023-02-01T12:32:06.093Z,19.85
2023-02-01T12:33:05.971Z,19.91
2023-02-01T12:34:05.919Z,19.88
2023-02-01T12:35:05.887Z,19.91
2023-02-01T12:36:05.851Z,19.85
2023-02-01T12:37:07.674Z,19.88
2023-02-01T12:38:06.125Z,19.92
2023-02-01T12:39:05.993Z,19.92
2023-02-01T12:40:05.947Z,19.89
2023-02-01T12:41:05.906Z,19.94
2023-02-01T12:42:05.870Z,19.95
2023-02-01T12:43:05.834Z,19.96
2023-02-01T12:44:05.781Z,19.98
2023-02-01T12:45:05.747Z,19.97
2023-02-01T12:46:05.710Z,20.01
2023-02-01T12:47:05.676Z,20.01
2023-02-01T12:48:05.620Z,20.02
2023-02-01T12:49:05.574Z,20.05
2023-02-01T12:50:05.547Z,20.00
2023-02-01T12:51:05.486Z,20.04
2023-02-01T12:52:05.463Z,20.07
2023-02-01T12:53:05.402Z,20.04
2023-02-01T12:54:05.367Z,20.02
2023-02-01T12:55:05.411Z,20.09
2023-02-01T12:56:05.286Z,20.10
2023-02-01T12:57:05.258Z,20.10
2023-02-01T12:58:05.208Z,20.08
2023-02-01T12:59:05.159Z,20.12
2023-02-01T13:00:05.129Z,20.14
2023-02-01T13:01:05.113Z,20.15
2023-02-01T13:02:05.077Z,20.10
2023-02-01T13:03:05.005Z,20.09
2023-02-01T13:04:04.961Z,20.16
2023-02-01T13:05:05.014Z,20.10
2023-02-01T13:06:04.881Z,20.19
2023-02-01T13:07:04.865Z,20.13
2023-02-01T13:08:04.815Z,20.16
2023-02-01T13:09:04.805Z,20.22
2023-02-01T13:10:04.748Z,20.24
2023-02-01T13:11:04.694Z,20.19
2023-02-01T13:12:04.657Z,20.18
2023-02-01T13:13:04.628Z,20.16
2023-02-01T13:14:04.627Z,20.19
2023-02-01T13:15:04.557Z,20.22
2023-02-01T13:16:04.505Z,20.16
2023-02-01T13:17:04.572Z,20.19
2023-02-01T13:18:04.435Z,20.27
2023-02-01T13:19:04.396Z,20.24
2023-02-01T13:20:04.353Z,20.19
2023-02-01T13:21:04.303Z,20.25
2023-02-01T13:22:04.272Z,20.19
2023-02-01T13:23:04.241Z,20.24
2023-02-01T13:24:04.210Z,20.26
2023-02-01T13:25:04.162Z,20.25
2023-02-01T13:26:04.127Z,20.24
2023-02-01T13:27:04.077Z,20.23
2023-02-01T13:28:04.055Z,20.28
2023-02-01T13:29:04.006Z,20.31
2023-02-01T13:30:03.976Z,20.25
2023-02-01T13:31:04.028Z,20.24
2023-02-01T13:32:03.899Z,20.31
2023-02-01T13:33:53.728Z,20.35
2023-02-01T13:34:04.822Z,20.25
2023-02-01T13:35:03.788Z,20.34
2023-02-01T13:36:03.731Z,20.34
2023-02-01T13:37:03.695Z,20.35
2023-02-01T13:38:03.707Z,20.34
2023-02-01T13:39:03.635Z,20.35
2023-02-01T13:40:03.573Z,20.29
2023-02-01T13:41:03.533Z,20.38
2023-02-01T13:42:03.515Z,20.34
2023-02-01T13:43:03.455Z,20.38
2023-02-01T13:44:03.418Z,20.35
2023-02-01T13:45:03.408Z,20.38
2023-02-01T13:46:03.401Z,20.39
2023-02-01T13:47:03.306Z,20.42
2023-02-01T13:48:03.310Z,20.45
2023-02-01T13:49:03.241Z,20.44
2023-02-01T13:50:03.207Z,20.44
2023-02-01T13:51:03.924Z,20.43
2023-02-01T13:52:03.142Z,20.46
2023-02-01T13:53:03.113Z,20.43
2023-02-01T13:54:03.065Z,20.51
2023-02-01T13:55:03.031Z,20.50
2023-02-01T13:56:03.001Z,20.48
2023-02-01T13:57:02.966Z,20.46
2023-02-01T13:58:02.905Z,20.52
2023-02-01T13:59:02.849Z,20.52
2023-02-01T14:00:02.828Z,20.50
2023-02-01T14:01:02.816Z,20.53
2023-02-01T14:02:02.735Z,20.51
2023-02-01T14:03:02.748Z,20.53
2023-02-01T14:04:02.753Z,20.53